Terminal Aerodrome Forecast
Issued by NWS Des Moines, IA

Current Version | Previous Version | Text Only | Print | Product List | Glossary On
Versions: 1 2 3 4 5 6 7 8 9 10 11 12 13 14 15 16 17 18 19 20 21 22 23 24 25 26
000
FTUS43 KDMX 031135
TAFDSM
TAF
KDSM 031135Z 0312/0412 19012KT P6SM BKN100
     FM031600 20015G23KT P6SM SCT150
     FM032300 20011KT P6SM BKN050
     FM040200 16008KT P6SM VCTS BKN050CB
     FM040800 01007KT P6SM VCSH SCT020 BKN035=

USA.gov is the U.S. government's official web portal to all federal, state and local government web resources and services.